Time;durP1;ratioP1;P1;durP2;ratioP2;P2;SDS_P1;SDS_P2;PMS_P1;PMS_P2;Temp;Humidity;BMP_temperature;BMP_pressure;BME280_temperature;BME280_humidity;BME280_pressure;Samples;Min_cycle;Max_cycle;Signal;HPM_P1;HPM_P2
2023/09/27 00:00:38;;;;;;;19.90;12.80;;;;;;;;;;109338;1251;59716;-80
2023/09/27 00:03:25;;;;;;;15.20;12.00;;;;;;;;;;109376;1251;59289;-80
2023/09/27 00:05:51;;;;;;;22.20;13.70;;;;;;;;;;109350;1251;59098;-79
2023/09/27 00:08:17;;;;;;;21.10;11.80;;;;;;;;;;109393;1251;59196;-80
2023/09/27 00:10:44;;;;;;;17.40;11.70;;;;;;;;;;109350;1251;59284;-80
2023/09/27 00:13:11;;;;;;;22.00;13.30;;;;;;;;;;109372;1251;59738;-80
2023/09/27 00:15:38;;;;;;;23.10;12.40;;;;;;;;;;109392;1252;59000;-80
2023/09/27 00:18:04;;;;;;;18.60;12.50;;;;;;;;;;109361;1251;59084;-80
2023/09/27 00:20:32;;;;;;;21.40;12.30;;;;;;;;;;109339;1252;59755;-80
2023/09/27 00:22:58;;;;;;;17.10;11.70;;;;;;;;;;109350;1251;59802;-80
2023/09/27 00:25:25;;;;;;;23.70;13.10;;;;;;;;;;109374;1253;59041;-80
2023/09/27 00:27:51;;;;;;;21.10;13.00;;;;;;;;;;109292;1251;59056;-80
2023/09/27 00:30:17;;;;;;;18.40;12.80;;;;;;;;;;109384;1251;59698;-80
2023/09/27 00:32:45;;;;;;;19.30;12.50;;;;;;;;;;109308;1252;59255;-80
2023/09/27 00:35:18;;;;;;;19.70;11.60;;;;;;;;;;109310;1253;59370;-80
2023/09/27 00:37:48;;;;;;;19.60;12.80;;;;;;;;;;109261;1252;59634;-80
2023/09/27 00:40:17;;;;;;;20.10;12.50;;;;;;;;;;109285;1253;58953;-80
2023/09/27 00:42:43;;;;;;;17.50;12.60;;;;;;;;;;109290;1253;62825;-80
2023/09/27 00:45:10;;;;;;;17.10;11.40;;;;;;;;;;109312;1251;59201;-80
2023/09/27 00:47:37;;;;;;;16.10;11.70;;;;;;;;;;109315;1251;59049;-80
2023/09/27 00:50:04;;;;;;;14.70;11.00;;;;;;;;;;109346;1254;59353;-80
2023/09/27 00:52:30;;;;;;;17.80;11.30;;;;;;;;;;109361;1251;59576;-80
2023/09/27 00:54:56;;;;;;;15.50;11.70;;;;;;;;;;109265;1251;59619;-80
2023/09/27 00:57:23;;;;;;;18.20;11.40;;;;;;;;;;109314;1254;58993;-80
2023/09/27 00:59:49;;;;;;;18.00;11.60;;;;;;;;;;109341;1251;59341;-81
2023/09/27 01:02:16;;;;;;;20.90;12.20;;;;;;;;;;109401;1251;59558;-80
2023/09/27 01:04:43;;;;;;;17.60;11.50;;;;;;;;;;109342;1251;58975;-80
2023/09/27 01:07:09;;;;;;;17.10;11.10;;;;;;;;;;109377;1251;62983;-80
2023/09/27 01:09:37;;;;;;;25.20;11.60;;;;;;;;;;109357;1252;59040;-80
2023/09/27 01:12:04;;;;;;;16.90;12.20;;;;;;;;;;109166;1251;197355;-80
2023/09/27 01:14:30;;;;;;;18.10;11.50;;;;;;;;;;109311;1253;58909;-80
2023/09/27 01:17:06;;;;;;;19.90;10.80;;;;;;;;;;109280;1251;59063;-80
2023/09/27 01:19:33;;;;;;;23.10;12.20;;;;;;;;;;109375;1251;61611;-80
2023/09/27 01:21:59;;;;;;;15.60;11.30;;;;;;;;;;109396;1251;59073;-80
2023/09/27 01:24:26;;;;;;;19.50;11.40;;;;;;;;;;109348;1251;59113;-80
2023/09/27 01:26:53;;;;;;;18.70;11.80;;;;;;;;;;109331;1253;59434;-80
2023/09/27 01:29:20;;;;;;;19.60;9.90;;;;;;;;;;109257;1252;58947;-80
2023/09/27 01:31:46;;;;;;;14.40;10.20;;;;;;;;;;109353;1251;59677;-80
2023/09/27 01:34:13;;;;;;;17.50;10.90;;;;;;;;;;109373;1251;59170;-80
2023/09/27 01:36:39;;;;;;;18.40;11.50;;;;;;;;;;109337;1253;59721;-80
2023/09/27 01:39:07;;;;;;;17.20;11.40;;;;;;;;;;109324;1251;59098;-80
2023/09/27 01:41:33;;;;;;;15.30;9.40;;;;;;;;;;109329;1251;59318;-80
2023/09/27 01:43:59;;;;;;;18.80;11.80;;;;;;;;;;109361;1253;59191;-80
2023/09/27 01:46:26;;;;;;;15.90;10.40;;;;;;;;;;109350;1251;59492;-80
2023/09/27 01:48:52;;;;;;;19.10;10.30;;;;;;;;;;109354;1251;59102;-80
2023/09/27 01:51:19;;;;;;;21.80;11.30;;;;;;;;;;109327;1251;59047;-80
2023/09/27 01:53:45;;;;;;;20.70;11.50;;;;;;;;;;109379;1252;58941;-80
2023/09/27 01:56:12;;;;;;;21.40;11.10;;;;;;;;;;109348;1255;61581;-80
2023/09/27 01:58:39;;;;;;;16.50;10.70;;;;;;;;;;109358;1251;59615;-80
2023/09/27 02:01:05;;;;;;;16.00;11.00;;;;;;;;;;109313;1252;59613;-80
2023/09/27 02:03:31;;;;;;;17.80;10.20;;;;;;;;;;109362;1251;59529;-80
2023/09/27 02:05:58;;;;;;;16.70;11.60;;;;;;;;;;109344;1251;59061;-80
2023/09/27 02:08:24;;;;;;;13.80;9.30;;;;;;;;;;109329;1251;59601;-80
2023/09/27 02:10:53;;;;;;;15.60;10.00;;;;;;;;;;109318;1251;59710;-80
2023/09/27 02:13:20;;;;;;;15.50;9.80;;;;;;;;;;109356;1251;59296;-80
2023/09/27 02:15:46;;;;;;;16.00;10.50;;;;;;;;;;109356;1252;59295;-80
2023/09/27 02:18:13;;;;;;;15.80;11.10;;;;;;;;;;109344;1253;58998;-80
2023/09/27 02:20:39;;;;;;;20.70;11.30;;;;;;;;;;109365;1251;61662;-80
2023/09/27 02:23:06;;;;;;;18.30;10.50;;;;;;;;;;109325;1251;59023;-80
2023/09/27 02:25:32;;;;;;;16.40;11.10;;;;;;;;;;109261;1251;59066;-80
2023/09/27 02:27:59;;;;;;;17.40;11.30;;;;;;;;;;109337;1251;59742;-80
2023/09/27 02:30:26;;;;;;;15.80;10.90;;;;;;;;;;109389;1252;59612;-80
2023/09/27 02:32:52;;;;;;;17.40;10.10;;;;;;;;;;109391;1251;60533;-80
2023/09/27 02:35:20;;;;;;;18.20;10.80;;;;;;;;;;109326;1251;59696;-80
2023/09/27 02:37:47;;;;;;;19.10;10.10;;;;;;;;;;109322;1251;59011;-80
2023/09/27 02:40:14;;;;;;;17.90;12.60;;;;;;;;;;109341;1251;59732;-80
2023/09/27 02:42:41;;;;;;;15.00;9.70;;;;;;;;;;109339;1251;59046;-80
2023/09/27 02:45:08;;;;;;;15.70;10.20;;;;;;;;;;109354;1251;60626;-80
2023/09/27 02:47:35;;;;;;;16.30;10.10;;;;;;;;;;109368;1251;59769;-80
2023/09/27 02:50:03;;;;;;;19.70;12.00;;;;;;;;;;109345;1251;59427;-80
2023/09/27 02:52:29;;;;;;;15.30;10.70;;;;;;;;;;109332;1253;59129;-80
2023/09/27 02:54:56;;;;;;;14.60;9.30;;;;;;;;;;109352;1253;59863;-80
2023/09/27 02:57:23;;;;;;;17.90;9.40;;;;;;;;;;109382;1253;59048;-81
2023/09/27 02:59:49;;;;;;;12.60;9.40;;;;;;;;;;109295;1251;58976;-80
2023/09/27 03:02:16;;;;;;;14.50;9.90;;;;;;;;;;109286;1253;59058;-80
2023/09/27 03:04:42;;;;;;;13.30;9.00;;;;;;;;;;109293;1255;59770;-79
2023/09/27 03:07:09;;;;;;;17.70;10.30;;;;;;;;;;109285;1251;59231;-80
2023/09/27 03:09:36;;;;;;;16.20;10.10;;;;;;;;;;109372;1251;59220;-81
2023/09/27 03:12:03;;;;;;;18.10;9.70;;;;;;;;;;109306;1251;59780;-79
2023/09/27 03:14:29;;;;;;;14.00;10.00;;;;;;;;;;109325;1251;59448;-80
2023/09/27 03:16:56;;;;;;;13.00;9.20;;;;;;;;;;109306;1251;58990;-79
2023/09/27 03:19:22;;;;;;;15.60;9.60;;;;;;;;;;109378;1251;59782;-80
2023/09/27 03:21:48;;;;;;;19.00;11.00;;;;;;;;;;109404;1251;59082;-80
2023/09/27 03:24:15;;;;;;;15.30;9.70;;;;;;;;;;109300;1251;58997;-80
2023/09/27 03:26:41;;;;;;;22.00;11.30;;;;;;;;;;109303;1251;59096;-80
2023/09/27 03:29:08;;;;;;;15.60;10.50;;;;;;;;;;109380;1251;59378;-80
2023/09/27 03:31:34;;;;;;;16.10;9.90;;;;;;;;;;109288;1255;58970;-82
2023/09/27 03:34:01;;;;;;;16.90;10.40;;;;;;;;;;109287;1251;59736;-81
2023/09/27 03:36:28;;;;;;;14.90;11.30;;;;;;;;;;109341;1251;59730;-80
2023/09/27 03:38:54;;;;;;;14.40;10.00;;;;;;;;;;109322;1251;59694;-80
2023/09/27 03:41:21;;;;;;;19.20;12.40;;;;;;;;;;109130;1251;59135;-80
2023/09/27 03:43:50;;;;;;;17.60;10.30;;;;;;;;;;109350;1251;59268;-80
2023/09/27 03:46:17;;;;;;;15.90;10.30;;;;;;;;;;109352;1251;61646;-80
2023/09/27 03:48:43;;;;;;;15.90;9.90;;;;;;;;;;109354;1256;59371;-80
2023/09/27 03:51:09;;;;;;;15.90;10.30;;;;;;;;;;109374;1251;59981;-80
2023/09/27 03:53:36;;;;;;;14.70;10.40;;;;;;;;;;109392;1252;59625;-80
2023/09/27 03:56:02;;;;;;;13.20;9.70;;;;;;;;;;109408;1251;59025;-80
2023/09/27 03:58:28;;;;;;;14.50;10.20;;;;;;;;;;109386;1256;59707;-80
2023/09/27 04:00:55;;;;;;;33.00;10.70;;;;;;;;;;109364;1256;59018;-80
2023/09/27 04:03:21;;;;;;;14.70;9.80;;;;;;;;;;109356;1251;59053;-80
2023/09/27 04:05:48;;;;;;;28.00;11.00;;;;;;;;;;109306;1251;59016;-80
2023/09/27 04:08:14;;;;;;;12.50;9.50;;;;;;;;;;109280;1251;59745;-80
2023/09/27 04:10:41;;;;;;;17.80;10.90;;;;;;;;;;109407;1251;59767;-80
2023/09/27 04:13:07;;;;;;;20.00;17.80;;;;;;;;;;109307;1251;59590;-80
2023/09/27 04:15:35;;;;;;;16.90;10.90;;;;;;;;;;109303;1251;59758;-80
2023/09/27 04:18:01;;;;;;;17.80;10.20;;;;;;;;;;109274;1251;59058;-80
2023/09/27 04:20:28;;;;;;;17.40;11.10;;;;;;;;;;109316;1251;59041;-80
2023/09/27 04:22:54;;;;;;;17.10;10.10;;;;;;;;;;109219;1251;59786;-80
2023/09/27 04:25:21;;;;;;;18.30;8.90;;;;;;;;;;109342;1251;59697;-80
2023/09/27 04:27:49;;;;;;;15.70;9.80;;;;;;;;;;109335;1251;59063;-80
2023/09/27 04:30:18;;;;;;;14.80;10.90;;;;;;;;;;109334;1251;59151;-80
2023/09/27 04:32:45;;;;;;;16.00;10.40;;;;;;;;;;109321;1251;59653;-80
2023/09/27 04:35:13;;;;;;;19.50;11.30;;;;;;;;;;109337;1251;62518;-80
2023/09/27 04:37:39;;;;;;;17.60;11.00;;;;;;;;;;109357;1251;59660;-80
2023/09/27 04:40:13;;;;;;;20.80;11.80;;;;;;;;;;109183;1251;59663;-80
2023/09/27 04:42:40;;;;;;;21.90;11.40;;;;;;;;;;109322;1251;59374;-80
2023/09/27 04:45:07;;;;;;;24.10;12.00;;;;;;;;;;109402;1251;59072;-80
2023/09/27 04:47:33;;;;;;;17.40;10.60;;;;;;;;;;109384;1251;62906;-80
2023/09/27 04:50:00;;;;;;;21.30;10.80;;;;;;;;;;109386;1251;59340;-80
2023/09/27 04:52:26;;;;;;;22.20;11.40;;;;;;;;;;109253;1251;60061;-80
2023/09/27 04:54:53;;;;;;;17.80;10.30;;;;;;;;;;109302;1251;59599;-80
2023/09/27 04:57:20;;;;;;;17.70;12.10;;;;;;;;;;109484;1250;59782;-79
2023/09/27 04:59:46;;;;;;;17.70;11.00;;;;;;;;;;109298;1251;59707;-80
2023/09/27 05:02:12;;;;;;;18.70;11.30;;;;;;;;;;109319;1251;59450;-80
2023/09/27 05:04:39;;;;;;;24.70;21.10;;;;;;;;;;109261;1251;59590;-80
2023/09/27 05:07:05;;;;;;;21.70;11.90;;;;;;;;;;109274;1251;60776;-80
2023/09/27 05:09:32;;;;;;;19.00;10.40;;;;;;;;;;109247;1251;59269;-80
2023/09/27 05:11:58;;;;;;;16.90;10.70;;;;;;;;;;109322;1251;59378;-80
2023/09/27 05:14:24;;;;;;;16.00;9.60;;;;;;;;;;109318;1251;59639;-80
2023/09/27 05:16:51;;;;;;;16.50;10.40;;;;;;;;;;109321;1251;59139;-80
2023/09/27 05:19:17;;;;;;;11.90;9.40;;;;;;;;;;109245;1251;59293;-80
2023/09/27 05:21:44;;;;;;;14.20;10.30;;;;;;;;;;109453;1250;59184;-80
2023/09/27 05:24:10;;;;;;;15.80;9.30;;;;;;;;;;109339;1251;59092;-80
2023/09/27 05:26:36;;;;;;;11.20;9.00;;;;;;;;;;109299;1251;59560;-80
2023/09/27 05:29:03;;;;;;;16.20;9.10;;;;;;;;;;109219;1251;59426;-80
2023/09/27 05:31:29;;;;;;;16.50;10.40;;;;;;;;;;109413;1249;59242;-80
2023/09/27 05:33:56;;;;;;;16.50;10.70;;;;;;;;;;109327;1251;59691;-79
2023/09/27 05:36:22;;;;;;;14.30;10.00;;;;;;;;;;109177;1251;59074;-80
2023/09/27 05:38:50;;;;;;;15.00;9.70;;;;;;;;;;109400;1251;58999;-80
2023/09/27 05:41:17;;;;;;;15.00;10.30;;;;;;;;;;109243;1253;59684;-80
2023/09/27 05:43:44;;;;;;;16.40;10.50;;;;;;;;;;109221;1251;59622;-79
2023/09/27 05:46:10;;;;;;;13.50;9.60;;;;;;;;;;109315;1251;59152;-80
2023/09/27 05:48:36;;;;;;;18.80;9.60;;;;;;;;;;109345;1251;59081;-80
2023/09/27 05:51:03;;;;;;;15.70;10.50;;;;;;;;;;109345;1251;59472;-80
2023/09/27 05:53:29;;;;;;;24.40;11.30;;;;;;;;;;109335;1251;59440;-80
2023/09/27 05:55:56;;;;;;;17.50;9.80;;;;;;;;;;109360;1251;59371;-80
2023/09/27 05:58:22;;;;;;;16.70;10.90;;;;;;;;;;109387;1250;59025;-80
2023/09/27 06:00:49;;;;;;;15.90;10.90;;;;;;;;;;109378;1251;59449;-82
2023/09/27 06:03:16;;;;;;;16.20;11.40;;;;;;;;;;109232;1251;59218;-80
2023/09/27 06:05:42;;;;;;;16.40;10.50;;;;;;;;;;109230;1251;59334;-80
2023/09/27 06:08:08;;;;;;;18.90;11.10;;;;;;;;;;109323;1251;59217;-80
2023/09/27 06:10:35;;;;;;;17.40;11.50;;;;;;;;;;109313;1251;59531;-80
2023/09/27 06:13:01;;;;;;;16.60;11.20;;;;;;;;;;109299;1251;59785;-80
2023/09/27 06:15:28;;;;;;;19.60;11.10;;;;;;;;;;109349;1251;59654;-80
2023/09/27 06:17:54;;;;;;;18.30;10.40;;;;;;;;;;109083;1254;59869;-80
2023/09/27 06:20:22;;;;;;;20.50;11.40;;;;;;;;;;109138;1254;58996;-80
2023/09/27 06:22:49;;;;;;;16.50;10.80;;;;;;;;;;109262;1251;59164;-80
2023/09/27 06:25:16;;;;;;;14.80;10.50;;;;;;;;;;109465;1251;62904;-80
2023/09/27 06:27:42;;;;;;;16.90;10.80;;;;;;;;;;109318;1251;59093;-80
2023/09/27 06:30:09;;;;;;;18.60;11.40;;;;;;;;;;109285;1251;59660;-80
2023/09/27 06:32:36;;;;;;;14.20;12.60;;;;;;;;;;109294;1251;59082;-80
2023/09/27 06:35:12;;;;;;;18.40;11.40;;;;;;;;;;109292;1251;59664;-80
2023/09/27 06:37:40;;;;;;;17.50;11.10;;;;;;;;;;109257;1251;62199;-80
2023/09/27 06:40:09;;;;;;;14.90;10.90;;;;;;;;;;109155;1254;59396;-80
2023/09/27 06:42:36;;;;;;;19.80;11.50;;;;;;;;;;109149;1254;59845;-81
2023/09/27 06:45:04;;;;;;;24.90;15.00;;;;;;;;;;109264;1251;59378;-81
2023/09/27 06:47:34;;;;;;;21.80;11.70;;;;;;;;;;109356;1251;59382;-80
2023/09/27 06:50:01;;;;;;;15.50;11.40;;;;;;;;;;109287;1251;62949;-80
2023/09/27 06:52:29;;;;;;;25.50;10.90;;;;;;;;;;109343;1251;59072;-80
2023/09/27 06:54:56;;;;;;;23.60;10.60;;;;;;;;;;109293;1251;60535;-80
2023/09/27 06:57:23;;;;;;;13.90;10.70;;;;;;;;;;109275;1251;59089;-80
2023/09/27 06:59:49;;;;;;;16.70;11.10;;;;;;;;;;109198;1256;59435;-80
2023/09/27 07:02:16;;;;;;;13.80;9.20;;;;;;;;;;109294;1251;59056;-81
2023/09/27 07:04:43;;;;;;;13.60;9.40;;;;;;;;;;109341;1250;59028;-81
2023/09/27 07:07:10;;;;;;;14.90;9.20;;;;;;;;;;109316;1253;59525;-80
2023/09/27 07:09:36;;;;;;;15.30;8.60;;;;;;;;;;109274;1251;59098;-83
2023/09/27 07:12:03;;;;;;;16.50;9.90;;;;;;;;;;109301;1251;59124;-80
2023/09/27 07:14:29;;;;;;;12.20;8.20;;;;;;;;;;109257;1253;61594;-81
2023/09/27 07:16:57;;;;;;;14.40;8.10;;;;;;;;;;109273;1251;59573;-81
2023/09/27 07:19:23;;;;;;;15.10;7.80;;;;;;;;;;109256;1251;59172;-80
2023/09/27 07:21:50;;;;;;;16.00;7.80;;;;;;;;;;109138;1253;60059;-81
2023/09/27 07:24:16;;;;;;;14.40;7.00;;;;;;;;;;109103;1253;59078;-81
2023/09/27 07:26:43;;;;;;;10.40;7.00;;;;;;;;;;109285;1251;59679;-81
2023/09/27 07:29:09;;;;;;;11.60;6.20;;;;;;;;;;109239;1251;59638;-82
2023/09/27 07:31:36;;;;;;;12.40;6.60;;;;;;;;;;109323;1251;59863;-82
2023/09/27 07:34:03;;;;;;;12.40;8.00;;;;;;;;;;109336;1251;59754;-81
2023/09/27 07:36:29;;;;;;;12.10;6.60;;;;;;;;;;109356;1251;59072;-82
2023/09/27 07:38:57;;;;;;;12.60;7.90;;;;;;;;;;109262;1251;59185;-82
2023/09/27 07:41:24;;;;;;;8.40;5.60;;;;;;;;;;109236;1251;59774;-82
2023/09/27 07:43:50;;;;;;;9.90;6.20;;;;;;;;;;109326;1251;59733;-82
2023/09/27 07:46:18;;;;;;;15.10;6.90;;;;;;;;;;109324;1251;59465;-82
2023/09/27 07:48:45;;;;;;;12.30;7.00;;;;;;;;;;109279;1251;59527;-82
2023/09/27 07:51:11;;;;;;;9.30;5.90;;;;;;;;;;109294;1251;59223;-82
2023/09/27 07:53:38;;;;;;;13.70;6.10;;;;;;;;;;109261;1251;59686;-82
2023/09/27 07:56:06;;;;;;;9.90;6.00;;;;;;;;;;109285;1253;59085;-83
2023/09/27 07:58:33;;;;;;;9.80;7.60;;;;;;;;;;109314;1251;59344;-82
2023/09/27 08:01:00;;;;;;;11.20;6.20;;;;;;;;;;109335;1250;59038;-81
2023/09/27 08:03:27;;;;;;;10.10;6.80;;;;;;;;;;109350;1250;59297;-82
2023/09/27 08:05:53;;;;;;;9.10;5.50;;;;;;;;;;109264;1251;59317;-82
2023/09/27 08:08:21;;;;;;;8.30;5.90;;;;;;;;;;109315;1250;60929;-82
2023/09/27 08:10:49;;;;;;;14.50;5.90;;;;;;;;;;109244;1250;59667;-82
2023/09/27 08:13:17;;;;;;;14.40;6.70;;;;;;;;;;109262;1251;58925;-82
2023/09/27 08:15:44;;;;;;;14.50;5.50;;;;;;;;;;109361;1251;60763;-82
2023/09/27 08:18:10;;;;;;;12.30;6.10;;;;;;;;;;109304;1251;59489;-83
2023/09/27 08:20:37;;;;;;;10.00;6.00;;;;;;;;;;109339;1251;59955;-83
2023/09/27 08:23:04;;;;;;;10.40;5.60;;;;;;;;;;109299;1251;60324;-83
2023/09/27 08:25:30;;;;;;;13.50;7.30;;;;;;;;;;109322;1251;59085;-83
2023/09/27 08:27:57;;;;;;;13.60;7.70;;;;;;;;;;109346;1254;60506;-83
2023/09/27 08:30:24;;;;;;;15.40;7.70;;;;;;;;;;109336;1250;60150;-83
2023/09/27 08:32:51;;;;;;;14.70;8.10;;;;;;;;;;109156;1251;59736;-83
2023/09/27 08:35:17;;;;;;;8.10;5.40;;;;;;;;;;109350;1251;59793;-83
2023/09/27 08:37:44;;;;;;;10.60;6.00;;;;;;;;;;109312;1251;59321;-83
2023/09/27 08:40:13;;;;;;;7.90;5.30;;;;;;;;;;109329;1251;59139;-83
2023/09/27 08:42:40;;;;;;;9.20;5.70;;;;;;;;;;109351;1251;59682;-83
2023/09/27 08:45:09;;;;;;;8.60;6.00;;;;;;;;;;109325;1251;60749;-84
2023/09/27 08:47:35;;;;;;;10.30;6.10;;;;;;;;;;109301;1251;59248;-83
2023/09/27 08:50:01;;;;;;;12.60;5.70;;;;;;;;;;109199;1251;59125;-83
2023/09/27 08:52:28;;;;;;;13.20;5.80;;;;;;;;;;109378;1250;59067;-83
2023/09/27 08:54:54;;;;;;;11.70;6.00;;;;;;;;;;109288;1251;60609;-81
2023/09/27 08:57:21;;;;;;;10.10;5.80;;;;;;;;;;109326;1251;59111;-82
2023/09/27 08:59:47;;;;;;;12.60;6.00;;;;;;;;;;109291;1251;59633;-81
2023/09/27 09:02:14;;;;;;;11.50;6.80;;;;;;;;;;109349;1251;59268;-81
2023/09/27 09:04:40;;;;;;;12.50;6.00;;;;;;;;;;109363;1251;59004;-81
2023/09/27 09:07:07;;;;;;;13.60;7.00;;;;;;;;;;109427;1251;59463;-82
2023/09/27 09:09:35;;;;;;;12.60;6.70;;;;;;;;;;109373;1251;60776;-82
2023/09/27 09:12:08;;;;;;;12.30;7.50;;;;;;;;;;109358;1251;59609;-81
2023/09/27 09:14:49;;;;;;;8.50;6.80;;;;;;;;;;109338;1251;59640;-81
2023/09/27 09:17:18;;;;;;;10.20;6.20;;;;;;;;;;109355;1251;60444;-81
2023/09/27 09:20:15;;;;;;;10.50;7.30;;;;;;;;;;109393;1250;59599;-81
2023/09/27 09:22:42;;;;;;;11.30;6.50;;;;;;;;;;109328;1251;60449;-82
2023/09/27 09:25:09;;;;;;;12.10;7.00;;;;;;;;;;109356;1250;58999;-82
2023/09/27 09:27:37;;;;;;;15.50;7.40;;;;;;;;;;109375;1251;59623;-82
2023/09/27 09:30:09;;;;;;;12.70;7.10;;;;;;;;;;109352;1251;60461;-82
2023/09/27 09:32:36;;;;;;;11.50;7.50;;;;;;;;;;109345;1251;59668;-82
2023/09/27 09:35:06;;;;;;;17.50;7.20;;;;;;;;;;109365;1251;59244;-82
2023/09/27 09:37:35;;;;;;;18.30;8.00;;;;;;;;;;109376;1251;59168;-82
2023/09/27 09:40:14;;;;;;;16.90;8.20;;;;;;;;;;109307;1251;59039;-81
2023/09/27 09:42:41;;;;;;;13.80;7.60;;;;;;;;;;109378;1251;61713;-81
2023/09/27 09:45:10;;;;;;;9.60;6.80;;;;;;;;;;109391;1251;59457;-82
2023/09/27 09:47:37;;;;;;;11.90;6.70;;;;;;;;;;109269;1251;60354;-81
2023/09/27 09:50:11;;;;;;;17.00;7.20;;;;;;;;;;109336;1251;59620;-81
2023/09/27 09:52:38;;;;;;;16.70;6.20;;;;;;;;;;109416;1250;59536;-81
2023/09/27 09:55:06;;;;;;;10.30;7.60;;;;;;;;;;109408;1250;61584;-82
2023/09/27 09:57:35;;;;;;;10.20;5.90;;;;;;;;;;109342;1251;59145;-82
2023/09/27 10:00:17;;;;;;;16.50;6.50;;;;;;;;;;109337;1250;60857;-81
2023/09/27 10:02:49;;;;;;;14.00;7.10;;;;;;;;;;109389;1250;59698;-82
2023/09/27 10:05:17;;;;;;;10.90;6.50;;;;;;;;;;109287;1251;59140;-81
2023/09/27 10:07:44;;;;;;;9.40;7.10;;;;;;;;;;109427;1250;63007;-81
2023/09/27 10:10:13;;;;;;;11.60;6.30;;;;;;;;;;109353;1251;59146;-83
2023/09/27 10:12:44;;;;;;;11.70;6.60;;;;;;;;;;109348;1251;59755;-81
2023/09/27 10:15:11;;;;;;;12.00;6.30;;;;;;;;;;109371;1251;59269;-81
2023/09/27 10:17:37;;;;;;;8.80;5.60;;;;;;;;;;109396;1250;59837;-81
2023/09/27 10:20:14;;;;;;;11.40;5.90;;;;;;;;;;109337;1252;59023;-82
2023/09/27 10:22:44;;;;;;;13.00;5.50;;;;;;;;;;109291;1252;59945;-82
2023/09/27 10:25:23;;;;;;;9.00;4.50;;;;;;;;;;109296;1253;59269;-82
2023/09/27 10:27:59;;;;;;;7.60;5.40;;;;;;;;;;109278;1253;59017;-81
2023/09/27 10:30:25;;;;;;;10.50;4.90;;;;;;;;;;109304;1251;59612;-82
2023/09/27 10:33:10;;;;;;;10.60;5.10;;;;;;;;;;109307;1251;62477;-81
2023/09/27 10:35:37;;;;;;;12.50;6.10;;;;;;;;;;109350;1255;59540;-82
2023/09/27 10:38:09;;;;;;;14.50;5.80;;;;;;;;;;109335;1251;59016;-82
2023/09/27 10:40:42;;;;;;;12.10;5.20;;;;;;;;;;109294;1252;59346;-82
2023/09/27 10:43:08;;;;;;;14.40;5.90;;;;;;;;;;109358;1251;59239;-82
2023/09/27 10:45:35;;;;;;;11.60;6.40;;;;;;;;;;109339;1251;60770;-82
2023/09/27 10:48:15;;;;;;;11.40;5.80;;;;;;;;;;109329;1251;59358;-81
2023/09/27 10:50:49;;;;;;;13.80;5.00;;;;;;;;;;109366;1250;58994;-82
2023/09/27 10:53:15;;;;;;;12.00;4.90;;;;;;;;;;109338;1251;59016;-82
2023/09/27 10:55:41;;;;;;;6.40;4.10;;;;;;;;;;109350;1251;59775;-82
2023/09/27 10:58:11;;;;;;;10.70;5.80;;;;;;;;;;109368;1252;59355;-83
2023/09/27 11:00:48;;;;;;;9.70;4.90;;;;;;;;;;109364;1250;59914;-82
2023/09/27 11:03:16;;;;;;;17.70;6.20;;;;;;;;;;109337;1251;60768;-82
2023/09/27 11:05:42;;;;;;;11.30;4.60;;;;;;;;;;109340;1251;59041;-82
2023/09/27 11:08:09;;;;;;;14.80;4.90;;;;;;;;;;109410;1251;59647;-82
2023/09/27 11:10:35;;;;;;;10.70;4.80;;;;;;;;;;109419;1251;62697;-81
2023/09/27 11:13:12;;;;;;;8.80;4.70;;;;;;;;;;109298;1251;59579;-82
2023/09/27 11:15:39;;;;;;;9.60;4.20;;;;;;;;;;109351;1250;60742;-82
2023/09/27 11:18:07;;;;;;;8.30;4.30;;;;;;;;;;109369;1250;59857;-81
2023/09/27 11:20:34;;;;;;;8.20;4.40;;;;;;;;;;109317;1251;59938;-82
2023/09/27 11:23:01;;;;;;;9.40;4.60;;;;;;;;;;109357;1251;61922;-82
2023/09/27 11:25:31;;;;;;;9.90;4.60;;;;;;;;;;109295;1253;59129;-82
2023/09/27 11:27:58;;;;;;;12.30;4.80;;;;;;;;;;109400;1250;59727;-82
2023/09/27 11:30:33;;;;;;;11.40;5.20;;;;;;;;;;109336;1253;59302;-83
2023/09/27 11:33:01;;;;;;;11.40;5.80;;;;;;;;;;109336;1251;59211;-82
2023/09/27 11:35:27;;;;;;;7.70;6.00;;;;;;;;;;109318;1251;61794;-81
2023/09/27 11:38:03;;;;;;;15.50;6.10;;;;;;;;;;109327;1251;59406;-82
2023/09/27 11:40:30;;;;;;;13.10;6.30;;;;;;;;;;109359;1251;59896;-81
2023/09/27 11:42:57;;;;;;;13.20;4.70;;;;;;;;;;109330;1251;59733;-81
2023/09/27 11:45:23;;;;;;;13.10;5.00;;;;;;;;;;109355;1251;59566;-81
2023/09/27 11:47:50;;;;;;;10.60;4.10;;;;;;;;;;109328;1251;59590;-81
2023/09/27 11:50:17;;;;;;;7.50;4.70;;;;;;;;;;109334;1251;59050;-81
2023/09/27 11:52:46;;;;;;;7.70;4.40;;;;;;;;;;109331;1251;60408;-82
2023/09/27 11:55:13;;;;;;;15.90;5.40;;;;;;;;;;109349;1251;59044;-81
2023/09/27 11:57:40;;;;;;;13.50;4.40;;;;;;;;;;109336;1250;59515;-82
2023/09/27 12:00:13;;;;;;;12.00;6.10;;;;;;;;;;109347;1249;60910;-81
2023/09/27 12:02:39;;;;;;;19.20;6.30;;;;;;;;;;109367;1250;59838;-82
2023/09/27 12:05:06;;;;;;;10.60;4.80;;;;;;;;;;109354;1251;59157;-82
2023/09/27 12:07:32;;;;;;;12.90;4.90;;;;;;;;;;109381;1251;59399;-81
2023/09/27 12:09:59;;;;;;;13.20;5.00;;;;;;;;;;109333;1251;59022;-81
2023/09/27 12:12:25;;;;;;;9.00;5.10;;;;;;;;;;109361;1251;59703;-81
2023/09/27 12:14:52;;;;;;;11.50;5.50;;;;;;;;;;109315;1251;59037;-82
2023/09/27 12:17:18;;;;;;;12.30;5.50;;;;;;;;;;109297;1251;59429;-81
2023/09/27 12:19:45;;;;;;;8.70;4.70;;;;;;;;;;109283;1251;59173;-81
2023/09/27 12:22:11;;;;;;;15.40;5.20;;;;;;;;;;109368;1250;59048;-81
2023/09/27 12:24:38;;;;;;;8.70;5.20;;;;;;;;;;109210;1251;61608;-79
2023/09/27 12:27:04;;;;;;;11.50;5.40;;;;;;;;;;109327;1251;59154;-79
2023/09/27 12:29:31;;;;;;;11.10;5.00;;;;;;;;;;109258;1251;59002;-79
2023/09/27 12:31:57;;;;;;;7.10;4.20;;;;;;;;;;109294;1251;59079;-79
2023/09/27 12:34:23;;;;;;;11.80;5.40;;;;;;;;;;109334;1251;59058;-79
2023/09/27 12:36:50;;;;;;;12.70;5.00;;;;;;;;;;109357;1251;59337;-80
2023/09/27 12:39:16;;;;;;;8.60;5.50;;;;;;;;;;109287;1251;59051;-80
2023/09/27 12:41:43;;;;;;;11.50;5.50;;;;;;;;;;109357;1250;59047;-79
2023/09/27 12:44:09;;;;;;;5.80;4.90;;;;;;;;;;109410;1251;59003;-79
2023/09/27 12:46:36;;;;;;;10.50;5.60;;;;;;;;;;109375;1251;58988;-82
2023/09/27 12:49:03;;;;;;;13.50;5.50;;;;;;;;;;109327;1251;59195;-82
2023/09/27 12:51:29;;;;;;;19.60;6.10;;;;;;;;;;109360;1251;59835;-82
2023/09/27 12:53:56;;;;;;;7.40;5.40;;;;;;;;;;109366;1250;59402;-82
2023/09/27 12:56:22;;;;;;;8.50;5.20;;;;;;;;;;109349;1251;59170;-82
2023/09/27 12:58:48;;;;;;;8.40;5.10;;;;;;;;;;109347;1253;59369;-81
2023/09/27 13:01:16;;;;;;;12.80;5.60;;;;;;;;;;109293;1251;59039;-82
2023/09/27 13:03:43;;;;;;;15.50;5.10;;;;;;;;;;109297;1251;59302;-81
2023/09/27 13:06:09;;;;;;;10.50;5.40;;;;;;;;;;109321;1251;59062;-81
2023/09/27 13:08:36;;;;;;;13.90;5.70;;;;;;;;;;109329;1251;59691;-81
2023/09/27 13:11:03;;;;;;;13.50;5.50;;;;;;;;;;109268;1251;177679;-81
2023/09/27 13:13:29;;;;;;;11.40;5.30;;;;;;;;;;109333;1252;62657;-82
2023/09/27 13:15:56;;;;;;;10.90;6.00;;;;;;;;;;109368;1251;59484;-81
2023/09/27 13:18:23;;;;;;;11.40;5.90;;;;;;;;;;109230;1251;59485;-82
2023/09/27 13:20:53;;;;;;;8.60;6.00;;;;;;;;;;109323;1251;59409;-81
2023/09/27 13:23:19;;;;;;;11.70;6.70;;;;;;;;;;109373;1251;59267;-81
2023/09/27 13:25:50;;;;;;;10.70;5.70;;;;;;;;;;109368;1251;61913;-81
2023/09/27 13:28:16;;;;;;;12.80;5.20;;;;;;;;;;109384;1251;59090;-82
2023/09/27 13:30:43;;;;;;;15.50;6.20;;;;;;;;;;109375;1251;59435;-82
2023/09/27 13:33:09;;;;;;;13.50;5.60;;;;;;;;;;109325;1251;59710;-82
2023/09/27 13:35:35;;;;;;;8.90;5.80;;;;;;;;;;109388;1251;59004;-82
2023/09/27 13:38:08;;;;;;;15.90;6.70;;;;;;;;;;109360;1251;59581;-82
2023/09/27 13:40:35;;;;;;;13.90;6.00;;;;;;;;;;109372;1251;59212;-82
2023/09/27 13:43:01;;;;;;;12.90;6.10;;;;;;;;;;109385;1250;59741;-81
2023/09/27 13:45:28;;;;;;;16.80;5.70;;;;;;;;;;109442;1250;59308;-82
2023/09/27 13:47:54;;;;;;;12.40;6.00;;;;;;;;;;109404;1251;59716;-82
2023/09/27 13:50:21;;;;;;;13.40;6.10;;;;;;;;;;109400;1252;59011;-82
2023/09/27 13:52:47;;;;;;;17.90;6.00;;;;;;;;;;109286;1251;59502;-81
2023/09/27 13:55:14;;;;;;;7.20;5.60;;;;;;;;;;109456;1252;59728;-82
2023/09/27 13:57:41;;;;;;;13.40;6.40;;;;;;;;;;109422;1250;59778;-82
2023/09/27 14:00:08;;;;;;;9.80;6.10;;;;;;;;;;109418;1251;59235;-81
2023/09/27 14:02:35;;;;;;;11.50;5.90;;;;;;;;;;109380;1251;60723;-81
2023/09/27 14:05:02;;;;;;;9.50;5.60;;;;;;;;;;109391;1251;59166;-81
2023/09/27 14:07:28;;;;;;;12.40;5.30;;;;;;;;;;109290;1251;59391;-82
2023/09/27 14:09:55;;;;;;;9.40;6.20;;;;;;;;;;109367;1251;59412;-82
2023/09/27 14:12:21;;;;;;;14.40;6.20;;;;;;;;;;109241;1252;59101;-82
2023/09/27 14:14:50;;;;;;;13.50;6.40;;;;;;;;;;109379;1251;59041;-81